Time;durP1;ratioP1;P1;durP2;ratioP2;P2;SDS_P1;SDS_P2;PMS_P1;PMS_P2;Temp;Humidity;BMP_temperature;BMP_pressure;BME280_temperature;BME280_humidity;BME280_pressure;Samples;Min_cycle;Max_cycle;Signal;HPM_P1;HPM_P2
2022/06/11 00:01:48;;;;;;;8.52;4.60;;;;;;;16.26;82.60;101939.59;4992154;28;20054;-87
2022/06/11 00:04:23;;;;;;;11.25;5.13;;;;;;;16.23;83.44;101942.47;4992560;28;20088;-88
2022/06/11 00:06:51;;;;;;;8.35;4.70;;;;;;;16.17;83.34;101932.06;4989399;28;20060;-87
2022/06/11 00:09:19;;;;;;;9.75;5.53;;;;;;;16.14;83.55;101933.13;4983619;28;20365;-87
2022/06/11 00:11:45;;;;;;;7.32;4.85;;;;;;;16.13;83.95;101927.81;4990836;28;20022;-88
2022/06/11 00:14:11;;;;;;;10.18;5.10;;;;;;;16.08;84.62;101929.91;4996177;28;20109;-86
2022/06/11 00:16:37;;;;;;;6.97;4.60;;;;;;;16.02;84.56;101927.56;4979374;28;20023;-87
2022/06/11 00:19:06;;;;;;;11.15;5.68;;;;;;;16.04;84.34;101931.88;4975277;28;20035;-87
2022/06/11 00:21:33;;;;;;;11.85;5.65;;;;;;;15.92;84.97;101917.31;4992392;28;20053;-87
2022/06/11 00:23:59;;;;;;;8.27;5.25;;;;;;;15.97;85.01;101933.22;4988144;28;20038;-87
2022/06/11 00:26:25;;;;;;;9.95;5.43;;;;;;;15.95;85.12;101929.72;4981572;28;20034;-87
2022/06/11 00:28:50;;;;;;;9.27;5.25;;;;;;;15.91;85.09;101929.03;4993346;28;20026;-87
2022/06/11 00:31:16;;;;;;;11.80;5.75;;;;;;;15.85;85.46;101931.19;4985591;28;20113;-87
2022/06/11 00:33:42;;;;;;;10.07;5.38;;;;;;;15.85;85.43;101934.75;4988986;28;20058;-86
2022/06/11 00:36:09;;;;;;;10.60;5.30;;;;;;;15.85;85.76;101936.56;4991271;28;20028;-87
2022/06/11 00:38:36;;;;;;;8.55;5.13;;;;;;;15.80;85.93;101931.47;4998141;28;20386;-87
2022/06/11 00:41:02;;;;;;;6.78;4.70;;;;;;;15.82;85.73;101934.06;4993892;28;20026;-87
2022/06/11 00:43:28;;;;;;;7.63;5.10;;;;;;;15.77;86.15;101931.63;4998900;28;20105;-88
2022/06/11 00:46:52;;;;;;;6.78;4.55;;;;;;;15.76;85.40;101935.25;4996117;28;20081;-88
2022/06/11 00:49:17;;;;;;;9.07;5.18;;;;;;;15.73;86.20;101935.44;4915487;29;20036;-88
2022/06/11 00:51:44;;;;;;;8.02;4.97;;;;;;;15.69;86.50;101931.19;4913024;29;20172;-88
2022/06/11 00:54:15;;;;;;;7.20;4.65;;;;;;;15.66;86.52;101934.03;4913866;29;20071;-87
2022/06/11 00:56:48;;;;;;;7.10;4.72;;;;;;;15.57;86.53;101927.31;4912166;29;20512;-88
2022/06/11 00:59:17;;;;;;;7.10;4.90;;;;;;;15.59;86.92;101928.09;4911895;29;20028;-87
2022/06/11 01:01:42;;;;;;;8.23;5.07;;;;;;;15.52;87.26;101915.09;4888723;29;20063;-88
2022/06/11 01:04:49;;;;;;;9.13;5.70;;;;;;;15.55;86.37;101925.66;4913756;29;20545;-87
2022/06/11 01:07:25;;;;;;;10.48;5.55;;;;;;;15.45;87.68;101920.78;4876451;29;20088;-87
2022/06/11 01:10:04;;;;;;;8.85;5.07;;;;;;;15.46;87.78;101927.03;4877151;29;20037;-89
2022/06/11 01:12:34;;;;;;;10.60;5.45;;;;;;;15.40;88.11;101919.31;4880346;29;20465;-88
2022/06/11 01:15:28;;;;;;;10.20;5.78;;;;;;;15.42;88.15;101928.13;4869073;29;20052;-88
2022/06/11 01:18:19;;;;;;;8.40;5.43;;;;;;;15.38;88.21;101924.78;4870262;29;20033;-87
2022/06/11 01:20:52;;;;;;;10.07;5.78;;;;;;;15.33;88.59;101926.81;4909291;29;20360;-87
2022/06/11 01:23:43;;;;;;;8.75;5.43;;;;;;;15.29;88.94;101917.19;4930007;29;20055;-88
2022/06/11 01:26:32;;;;;;;6.60;5.75;;;;;;;15.26;89.14;101921.84;4928489;28;20094;-87
2022/06/11 01:29:34;;;;;;;7.95;5.57;;;;;;;15.23;88.74;101922.03;4935274;29;20050;-87
2022/06/11 01:32:18;;;;;;;7.43;5.13;;;;;;;15.17;88.77;101913.38;4917769;29;20127;-87
2022/06/11 01:34:56;;;;;;;8.88;5.70;;;;;;;15.12;89.44;101922.59;4923084;29;20032;-87
2022/06/11 01:37:42;;;;;;;6.88;5.15;;;;;;;15.11;89.73;101923.56;4950971;28;20043;-88
2022/06/11 01:40:14;;;;;;;7.72;5.47;;;;;;;15.10;90.28;101919.16;4989995;28;20030;-88
2022/06/11 01:42:50;;;;;;;8.63;5.32;;;;;;;15.08;90.24;101915.66;4987746;28;20440;-88
2022/06/11 01:45:25;;;;;;;8.30;5.25;;;;;;;15.08;90.45;101912.97;4985034;28;20030;-88
2022/06/11 01:47:52;;;;;;;12.20;5.25;;;;;;;15.08;90.50;101907.63;4982864;28;20034;-87
2022/06/11 01:50:20;;;;;;;9.27;4.63;;;;;;;15.08;90.15;101911.16;4993435;28;20034;-89
2022/06/11 01:52:57;;;;;;;10.60;4.97;;;;;;;15.09;89.91;101917.38;4984923;28;20449;-88
2022/06/11 01:55:43;;;;;;;7.05;5.07;;;;;;;15.08;89.29;101913.84;4987022;28;20073;-89
2022/06/11 01:58:43;;;;;;;7.18;4.60;;;;;;;15.08;89.36;101903.13;4988667;28;20040;-88
2022/06/11 02:01:26;;;;;;;7.53;4.65;;;;;;;15.05;89.56;101907.78;4978082;28;20030;-87
2022/06/11 02:04:00;;;;;;;8.53;4.67;;;;;;;15.06;90.07;101902.34;4987225;28;20042;-88
2022/06/11 02:06:53;;;;;;;6.93;4.30;;;;;;;15.07;89.36;101905.88;4988051;28;20070;-89
2022/06/11 02:09:25;;;;;;;5.47;4.13;;;;;;;15.08;89.54;101908.47;4971836;28;20511;-88
2022/06/11 02:12:03;;;;;;;7.47;4.25;;;;;;;15.00;89.57;101905.34;4983582;28;20871;-90
2022/06/11 02:14:51;;;;;;;8.20;4.28;;;;;;;15.01;89.21;101914.28;4979740;28;20042;-88
2022/06/11 02:17:24;;;;;;;6.25;4.43;;;;;;;14.95;89.90;101913.63;4990863;28;20034;-88
2022/06/11 02:19:55;;;;;;;6.63;4.28;;;;;;;14.92;89.93;101919.16;5021491;28;20042;-88
2022/06/11 02:22:44;;;;;;;6.80;4.10;;;;;;;14.89;89.47;101905.91;4992300;28;20050;-87
2022/06/11 02:25:21;;;;;;;7.07;4.53;;;;;;;14.86;90.13;101907.88;4987220;28;20037;-87
2022/06/11 02:27:49;;;;;;;10.15;4.78;;;;;;;14.82;90.60;101915.22;4985240;28;20062;-89
2022/06/11 02:30:19;;;;;;;6.47;4.03;;;;;;;14.83;90.57;101916.94;4989149;28;20032;-88
2022/06/11 02:32:45;;;;;;;7.03;4.43;;;;;;;14.80;91.11;101914.44;4997790;28;20011;-86
2022/06/11 02:35:22;;;;;;;7.28;4.60;;;;;;;14.78;91.07;101908.28;4982941;28;20114;-86
2022/06/11 02:37:48;;;;;;;9.13;4.53;;;;;;;14.75;91.24;101915.59;4983255;28;20038;-88
2022/06/11 02:40:21;;;;;;;6.25;4.35;;;;;;;14.72;90.91;101908.59;4989131;28;20543;-88
2022/06/11 02:42:47;;;;;;;8.73;4.95;;;;;;;14.69;91.51;101911.44;4989465;28;20026;-88
2022/06/11 02:45:14;;;;;;;7.03;4.35;;;;;;;14.63;91.58;101917.09;4986301;28;20550;-88
2022/06/11 02:47:42;;;;;;;8.85;5.05;;;;;;;14.60;92.23;101919.94;4985440;28;20033;-87
2022/06/11 02:50:09;;;;;;;9.45;5.00;;;;;;;14.62;91.95;101934.97;4981440;28;20026;-87
2022/06/11 02:52:37;;;;;;;7.20;5.00;;;;;;;14.60;92.41;101925.31;4971915;28;20059;-88
2022/06/11 02:55:03;;;;;;;9.63;4.70;;;;;;;14.58;92.20;101935.22;4994259;28;20423;-86
2022/06/11 02:57:30;;;;;;;6.18;4.25;;;;;;;14.57;92.69;101926.31;4989481;28;20035;-87
2022/06/11 02:59:56;;;;;;;6.93;4.43;;;;;;;14.60;92.18;101938.69;4988683;28;20073;-88
2022/06/11 03:02:23;;;;;;;4.93;4.40;;;;;;;14.59;92.44;101942.28;4983611;28;20019;-88
2022/06/11 03:04:49;;;;;;;6.72;4.65;;;;;;;14.58;92.82;101946.78;4978307;28;20183;-87
2022/06/11 03:07:15;;;;;;;8.15;4.78;;;;;;;14.58;92.32;101935.22;4980705;28;20026;-88
2022/06/11 03:09:41;;;;;;;8.85;4.88;;;;;;;14.61;92.47;101943.97;4979487;28;20719;-86
2022/06/11 03:12:09;;;;;;;5.85;4.05;;;;;;;14.64;92.39;101938.47;4980276;28;20113;-88
2022/06/11 03:14:34;;;;;;;7.45;4.07;;;;;;;14.74;92.47;101946.88;4980957;28;20527;-87
2022/06/11 03:17:00;;;;;;;7.72;4.57;;;;;;;14.80;92.28;101943.91;4979502;28;20026;-88
2022/06/11 03:19:25;;;;;;;4.65;3.85;;;;;;;14.86;91.95;101934.69;4984987;28;20065;-87
2022/06/11 03:21:54;;;;;;;7.63;4.40;;;;;;;14.98;91.53;101943.91;4993038;28;20027;-87
2022/06/11 03:24:21;;;;;;;7.88;3.78;;;;;;;15.05;91.13;101939.94;4988212;28;20034;-87
2022/06/11 03:26:47;;;;;;;6.88;4.10;;;;;;;15.12;91.20;101946.72;4985268;28;21418;-87
2022/06/11 03:29:13;;;;;;;8.07;4.38;;;;;;;15.16;90.65;101949.16;4988219;28;20034;-88
2022/06/11 03:31:38;;;;;;;7.05;4.10;;;;;;;15.21;90.52;101948.91;4988025;28;20503;-87
2022/06/11 03:34:04;;;;;;;7.32;3.90;;;;;;;15.26;90.17;101946.00;4989858;28;20034;-87
2022/06/11 03:36:31;;;;;;;5.18;4.10;;;;;;;15.29;90.44;101951.19;4977341;28;20525;-87
2022/06/11 03:38:56;;;;;;;6.55;3.90;;;;;;;15.30;90.18;101953.81;4980964;28;20325;-86
2022/06/11 03:41:22;;;;;;;7.07;3.67;;;;;;;15.32;89.67;101945.69;4995699;28;20568;-87
2022/06/11 03:43:49;;;;;;;6.13;4.05;;;;;;;15.36;89.87;101953.47;4987572;28;20097;-87
2022/06/11 03:46:14;;;;;;;4.18;3.47;;;;;;;15.41;89.37;101963.97;4994954;28;20034;-86
2022/06/11 03:48:40;;;;;;;6.43;4.22;;;;;;;15.38;89.21;101956.97;4989200;28;20061;-87
2022/06/11 03:51:07;;;;;;;6.53;3.80;;;;;;;15.42;89.27;101966.59;4987371;28;20051;-88
2022/06/11 03:53:33;;;;;;;5.05;3.60;;;;;;;15.41;88.99;101962.16;4979667;28;20031;-88
2022/06/11 03:55:59;;;;;;;6.85;3.85;;;;;;;15.44;89.34;101970.03;4992833;28;20037;-88
2022/06/11 03:58:25;;;;;;;5.50;3.80;;;;;;;15.47;88.84;101966.34;4982840;28;20343;-87
2022/06/11 04:03:36;;;;;;;6.95;4.00;;;;;;;15.52;88.54;101979.50;4994596;28;21137;-88
2022/06/11 04:06:03;;;;;;;7.80;3.85;;;;;;;15.52;88.42;101987.56;4990934;28;20050;-86
2022/06/11 04:08:28;;;;;;;4.85;3.65;;;;;;;15.53;88.40;101987.47;4978171;28;20031;-87
2022/06/11 04:10:56;;;;;;;6.03;4.00;;;;;;;15.55;88.43;101985.59;4993342;28;20084;-87
2022/06/11 04:13:23;;;;;;;11.82;4.30;;;;;;;15.57;87.85;101983.66;4981661;28;20564;-87
2022/06/11 04:15:50;;;;;;;6.82;4.15;;;;;;;15.55;88.06;101984.69;4994553;28;20031;-87
2022/06/11 04:18:29;;;;;;;6.55;3.70;;;;;;;15.60;88.32;101991.56;4992794;28;20359;-88
2022/06/11 04:20:55;;;;;;;7.20;3.58;;;;;;;15.61;87.88;101997.78;4991579;28;20030;-88
2022/06/11 04:23:24;;;;;;;4.15;3.58;;;;;;;15.64;88.10;101994.94;4993216;28;20022;-88
2022/06/11 04:25:49;;;;;;;6.78;3.80;;;;;;;15.65;87.71;102000.25;4984788;28;20477;-87
2022/06/11 04:28:14;;;;;;;5.28;3.67;;;;;;;15.68;87.51;102004.59;4998326;28;20081;-86
2022/06/11 04:30:40;;;;;;;6.30;4.10;;;;;;;15.68;87.78;102001.91;4992462;28;20544;-87
2022/06/11 04:33:05;;;;;;;6.38;4.32;;;;;;;15.71;87.48;102006.25;4989548;28;20670;-88
2022/06/11 04:35:31;;;;;;;9.00;3.92;;;;;;;15.69;87.59;102001.81;5008684;28;20030;-87
2022/06/11 04:37:58;;;;;;;7.05;4.05;;;;;;;15.71;87.42;102015.16;4995165;28;20030;-87
2022/06/11 04:40:23;;;;;;;5.80;3.42;;;;;;;15.71;87.50;102017.84;4994482;28;20049;-87
2022/06/11 04:42:49;;;;;;;4.35;3.70;;;;;;;15.69;87.48;102009.88;4991730;28;20030;-88
2022/06/11 04:45:16;;;;;;;6.95;3.95;;;;;;;15.76;87.34;102010.44;4988059;28;20113;-88
2022/06/11 04:47:42;;;;;;;6.25;4.18;;;;;;;15.76;87.33;102007.75;4990099;28;20033;-88
2022/06/11 04:50:08;;;;;;;5.80;3.70;;;;;;;15.82;86.89;102023.50;4982647;28;20027;-89
2022/06/11 04:52:34;;;;;;;5.85;3.50;;;;;;;15.84;86.94;102018.94;4974275;28;20043;-87
2022/06/11 04:54:59;;;;;;;8.13;4.15;;;;;;;15.86;86.58;102013.47;4976326;28;20602;-89
2022/06/11 04:57:25;;;;;;;6.75;3.75;;;;;;;15.88;86.77;102024.97;4987923;28;20029;-88
2022/06/11 04:59:50;;;;;;;7.72;3.80;;;;;;;15.90;85.45;102018.59;4986119;28;20034;-88
2022/06/11 05:02:16;;;;;;;8.63;3.90;;;;;;;15.93;86.17;102018.44;4992080;28;20027;-87
2022/06/11 05:04:42;;;;;;;6.03;3.88;;;;;;;15.95;85.68;102021.00;4985123;28;20057;-89
2022/06/11 05:07:07;;;;;;;7.15;3.78;;;;;;;16.01;84.81;102023.38;4981285;28;20047;-86
2022/06/11 05:09:33;;;;;;;8.45;3.80;;;;;;;16.07;84.78;102022.16;4987750;28;20018;-88
2022/06/11 05:11:59;;;;;;;6.28;4.10;;;;;;;16.12;84.47;102018.25;4993866;28;20129;-88
2022/06/11 05:14:26;;;;;;;6.07;4.05;;;;;;;16.14;83.24;102013.69;4999062;28;20030;-87
2022/06/11 05:16:56;;;;;;;7.15;4.10;;;;;;;16.11;83.68;102007.63;4999418;28;20031;-86
2022/06/11 05:19:21;;;;;;;6.93;4.35;;;;;;;16.13;83.89;102011.94;4993046;28;20045;-87
2022/06/11 05:21:48;;;;;;;7.50;4.38;;;;;;;16.11;83.58;102016.53;4986109;28;20388;-86
2022/06/11 05:24:14;;;;;;;9.20;4.35;;;;;;;16.17;83.66;102020.69;4988646;28;20026;-87
2022/06/11 05:26:49;;;;;;;9.77;4.40;;;;;;;16.18;82.65;102025.13;4994596;28;20031;-87
2022/06/11 05:29:33;;;;;;;7.45;3.85;;;;;;;16.21;81.79;102034.81;4992194;28;20042;-87
2022/06/11 05:31:59;;;;;;;7.00;4.07;;;;;;;16.21;81.44;102022.25;4985699;28;20034;-88
2022/06/11 05:34:27;;;;;;;8.57;4.00;;;;;;;16.27;79.93;102021.94;5012166;28;20511;-86
2022/06/11 05:36:52;;;;;;;7.53;3.85;;;;;;;16.37;79.72;102023.13;4992312;28;20085;-86
2022/06/11 05:39:17;;;;;;;7.13;3.58;;;;;;;16.51;78.95;102034.91;4994869;28;20022;-87
2022/06/11 05:41:43;;;;;;;11.27;3.83;;;;;;;16.56;76.05;102020.28;4993643;28;20014;-89
2022/06/11 05:44:08;;;;;;;8.98;4.05;;;;;;;16.61;75.73;102030.75;4984352;28;20044;-88
2022/06/11 05:46:35;;;;;;;5.97;3.47;;;;;;;16.59;74.87;102025.44;4975206;28;20147;-85
2022/06/11 05:49:04;;;;;;;6.18;2.92;;;;;;;16.64;74.44;102038.66;4988751;28;20035;-89
2022/06/11 05:51:40;;;;;;;5.00;3.30;;;;;;;16.64;74.74;102030.59;4994102;28;20117;-84
2022/06/11 05:54:15;;;;;;;6.93;3.17;;;;;;;16.55;72.84;102017.66;4987626;28;20043;-87
2022/06/11 05:56:41;;;;;;;8.50;3.22;;;;;;;16.51;70.34;102029.53;4994975;28;20490;-86
2022/06/11 05:59:12;;;;;;;9.23;3.35;;;;;;;16.40;71.37;102030.16;4992588;28;20030;-88
2022/06/11 06:01:40;;;;;;;10.32;2.95;;;;;;;16.32;71.64;102029.72;4988157;28;20026;-84
2022/06/11 06:04:06;;;;;;;7.63;2.85;;;;;;;16.36;71.47;102021.41;4994208;28;20072;-86
2022/06/11 06:06:32;;;;;;;12.27;3.75;;;;;;;16.63;71.19;102034.22;4985364;28;20022;-86
2022/06/11 06:08:57;;;;;;;13.55;5.40;;;;;;;16.95;70.77;102020.75;4988776;28;20278;-85
2022/06/11 06:11:23;;;;;;;9.88;2.85;;;;;;;17.32;66.45;102031.06;4989576;28;20547;-85
2022/06/11 06:13:48;;;;;;;10.05;2.53;;;;;;;17.68;64.79;102033.34;4987715;28;20142;-87
2022/06/11 06:16:19;;;;;;;7.53;3.08;;;;;;;17.91;63.74;102037.31;4987619;28;20452;-85
2022/06/11 06:18:45;;;;;;;9.77;2.78;;;;;;;18.03;61.45;102035.69;4993437;28;20503;-85
2022/06/11 06:21:11;;;;;;;10.25;2.42;;;;;;;18.20;61.66;102042.69;4990896;28;20053;-86
2022/06/11 06:23:36;;;;;;;9.20;2.67;;;;;;;18.12;60.20;102042.31;4986096;28;20031;-86
2022/06/11 06:26:02;;;;;;;16.77;3.35;;;;;;;18.07;60.52;102048.00;4991602;28;20040;-87
2022/06/11 06:28:28;;;;;;;7.60;2.17;;;;;;;18.15;61.87;102053.75;4978342;28;20038;-87
2022/06/11 06:30:53;;;;;;;9.73;2.60;;;;;;;18.17;60.86;102053.66;4981789;28;20060;-86
2022/06/11 06:33:18;;;;;;;8.73;3.05;;;;;;;18.18;61.42;102049.97;4984303;28;20107;-86
2022/06/11 06:35:44;;;;;;;11.10;2.85;;;;;;;18.11;59.73;102062.13;4991592;28;20480;-86
2022/06/11 06:38:09;;;;;;;9.38;2.50;;;;;;;17.98;60.72;102062.03;4992239;28;20033;-87
2022/06/11 06:40:35;;;;;;;10.98;2.90;;;;;;;17.87;59.96;102057.31;4993359;28;20029;-86
2022/06/11 06:43:01;;;;;;;10.57;2.70;;;;;;;18.00;61.25;102061.94;4976987;28;20138;-87
2022/06/11 06:45:27;;;;;;;12.45;3.17;;;;;;;17.99;61.33;102055.69;4983038;28;20350;-86
2022/06/11 06:47:52;;;;;;;10.27;2.75;;;;;;;17.94;61.39;102059.66;4978287;28;20029;-87
2022/06/11 06:50:17;;;;;;;9.35;2.53;;;;;;;17.75;61.30;102059.91;4990012;28;20037;-86
2022/06/11 06:52:43;;;;;;;10.88;2.85;;;;;;;17.62;62.26;102057.94;4982836;28;20039;-87
2022/06/11 06:55:10;;;;;;;9.05;2.40;;;;;;;17.46;62.35;102059.81;4992621;28;20037;-87
2022/06/11 06:57:36;;;;;;;11.25;2.45;;;;;;;17.39;62.25;102062.03;4982474;28;20028;-85
2022/06/11 07:00:03;;;;;;;13.90;2.97;;;;;;;17.37;61.65;102063.06;4990554;28;20007;-86
2022/06/11 07:02:28;;;;;;;9.48;2.90;;;;;;;17.37;61.92;102053.16;4990630;28;20492;-85
2022/06/11 07:04:54;;;;;;;11.93;2.67;;;;;;;17.29;61.98;102050.06;4987573;28;20053;-85
2022/06/11 07:07:19;;;;;;;9.40;2.65;;;;;;;17.35;62.53;102052.41;4988488;28;20060;-89
2022/06/11 07:09:45;;;;;;;11.02;2.60;;;;;;;17.80;61.92;102055.97;4991035;28;20380;-87
2022/06/11 07:12:11;;;;;;;11.60;2.90;;;;;;;18.01;61.14;102059.13;4998349;28;20132;-86
2022/06/11 07:14:36;;;;;;;14.90;4.03;;;;;;;18.29;60.00;102063.66;4984204;28;20547;-86
2022/06/11 07:17:06;;;;;;;12.75;3.58;;;;;;;18.37;58.76;102066.72;4994861;28;20651;-85
2022/06/11 07:19:45;;;;;;;12.27;3.60;;;;;;;18.31;59.59;102066.22;4991191;28;20034;-88
2022/06/11 07:22:17;;;;;;;12.00;3.08;;;;;;;18.35;59.56;102057.88;4978177;28;20007;-86
2022/06/11 07:24:43;;;;;;;13.23;3.75;;;;;;;18.32;57.96;102068.00;4992908;28;20121;-87
2022/06/11 07:27:13;;;;;;;17.88;3.78;;;;;;;18.45;58.48;102071.63;4991898;28;20070;-85
2022/06/11 07:29:47;;;;;;;13.48;3.45;;;;;;;18.67;59.02;102073.78;4993982;28;20034;-88
2022/06/11 07:32:19;;;;;;;12.23;3.50;;;;;;;18.64;58.27;102084.75;4983566;28;20030;-86
2022/06/11 07:34:44;;;;;;;14.38;3.28;;;;;;;18.52;58.45;102078.34;4995377;28;20101;-87
2022/06/11 07:37:10;;;;;;;14.23;3.67;;;;;;;18.47;59.42;102072.38;4990102;28;20061;-87
2022/06/11 07:39:36;;;;;;;17.25;3.92;;;;;;;18.57;60.10;102080.75;4989999;28;20468;-86
2022/06/11 07:42:02;;;;;;;13.52;4.18;;;;;;;18.55;59.60;102072.75;4983434;28;20018;-87
2022/06/11 07:44:27;;;;;;;19.23;3.90;;;;;;;18.58;59.57;102085.16;4988091;28;20380;-84
2022/06/11 07:46:52;;;;;;;16.10;3.50;;;;;;;18.81;58.15;102079.19;4982487;28;20137;-87
2022/06/11 07:49:18;;;;;;;15.77;3.83;;;;;;;18.97;57.58;102075.44;4989012;28;20050;-87
2022/06/11 07:51:43;;;;;;;12.27;3.20;;;;;;;19.83;57.44;102075.88;4991808;28;20054;-86
2022/06/11 07:54:09;;;;;;;11.93;3.85;;;;;;;21.09;53.18;102076.53;4977655;28;20045;-88
2022/06/11 07:56:36;;;;;;;19.10;3.92;;;;;;;21.48;51.24;102073.63;4984636;28;20039;-86
2022/06/11 07:59:01;;;;;;;15.45;3.72;;;;;;;21.33;50.59;102068.44;4988300;28;20042;-87
2022/06/11 08:01:27;;;;;;;10.70;3.10;;;;;;;21.27;50.48;102079.69;4994793;28;20527;-86
2022/06/11 08:03:52;;;;;;;12.32;3.20;;;;;;;21.14;51.23;102079.75;4982331;28;20627;-88
2022/06/11 08:06:17;;;;;;;13.60;3.20;;;;;;;21.02;51.87;102074.41;4993147;28;20236;-89
2022/06/11 08:08:45;;;;;;;12.20;3.15;;;;;;;21.55;51.85;102083.88;4991752;28;20415;-88
2022/06/11 08:11:10;;;;;;;11.57;3.08;;;;;;;21.42;49.99;102083.09;4990499;28;20025;-87
2022/06/11 08:13:35;;;;;;;15.32;3.10;;;;;;;22.16;51.33;102083.63;4984571;28;20023;-87
2022/06/11 08:16:02;;;;;;;8.75;3.15;;;;;;;23.08;46.52;102101.38;4982759;28;20440;-87
2022/06/11 08:18:29;;;;;;;11.82;3.10;;;;;;;22.83;46.53;102105.25;4992555;28;20057;-87
2022/06/11 08:20:55;;;;;;;13.10;3.65;;;;;;;22.37;48.40;102095.44;4995758;28;20098;-87
2022/06/11 08:23:22;;;;;;;11.93;3.60;;;;;;;22.12;47.40;102092.97;4987429;28;20064;-89
2022/06/11 08:25:48;;;;;;;13.50;3.50;;;;;;;21.83;48.13;102095.28;4986006;28;20022;-87
2022/06/11 08:28:14;;;;;;;16.88;3.67;;;;;;;21.69;49.02;102109.03;4979747;28;20034;-85
2022/06/11 08:30:41;;;;;;;14.07;3.63;;;;;;;21.68;48.88;102101.88;4994782;28;20027;-90
2022/06/11 08:33:07;;;;;;;17.30;4.60;;;;;;;21.60;48.86;102100.63;5010296;28;20033;-92
2022/06/11 08:35:33;;;;;;;11.35;3.53;;;;;;;21.48;48.52;102104.28;5010835;28;20510;-92
2022/06/11 08:38:00;;;;;;;12.85;3.58;;;;;;;21.55;49.76;102100.13;4992079;28;20025;-95
2022/06/11 08:40:45;;;;;;;11.52;3.00;;;;;;;22.12;50.57;102106.53;4990756;28;20251;-90
2022/06/11 08:43:30;;;;;;;13.40;3.40;;;;;;;22.46;48.13;102111.97;4984092;28;20018;-93
2022/06/11 08:46:06;;;;;;;12.25;3.53;;;;;;;21.97;48.55;102102.31;4978327;28;20090;-91
2022/06/11 08:48:50;;;;;;;11.90;3.83;;;;;;;22.32;49.14;102103.09;4985942;28;20112;-91
2022/06/11 08:51:21;;;;;;;14.27;3.20;;;;;;;23.63;47.51;102100.38;4993754;28;20046;-90
2022/06/11 08:53:49;;;;;;;10.48;3.03;;;;;;;25.04;41.72;102094.09;4984626;28;20027;-89
2022/06/11 08:56:56;;;;;;;14.38;3.45;;;;;;;24.53;43.28;102108.75;4990432;28;20378;-92
2022/06/11 08:59:33;;;;;;;15.80;3.50;;;;;;;24.55;42.89;102109.50;4989577;28;20035;-93
2022/06/11 09:02:31;;;;;;;12.40;3.40;;;;;;;25.79;39.50;102098.84;4980270;28;20039;-90
2022/06/11 09:05:20;;;;;;;14.27;3.65;;;;;;;27.62;37.68;102103.38;4989273;28;20465;-92
2022/06/11 09:08:19;;;;;;;12.52;3.63;;;;;;;28.32;37.88;102105.22;4996135;28;20085;-89
2022/06/11 09:11:24;;;;;;;11.32;3.35;;;;;;;27.85;37.58;102102.91;4991697;28;20137;-92
2022/06/11 09:14:11;;;;;;;13.27;3.60;;;;;;;26.90;37.51;102113.44;4953241;28;20638;-86
2022/06/11 09:17:08;;;;;;;21.23;4.45;;;;;;;26.36;39.10;102104.25;4981492;28;20035;-87
2022/06/11 09:20:11;;;;;;;18.13;4.00;;;;;;;26.89;39.38;102102.69;4991613;28;20037;-87
2022/06/11 09:22:39;;;;;;;11.48;3.35;;;;;;;27.61;34.76;102104.41;4968132;28;20038;-85
2022/06/11 09:25:38;;;;;;;26.50;5.03;;;;;;;29.70;34.67;102102.81;4971112;28;20031;-85
2022/06/11 09:28:21;;;;;;;9.55;3.00;;;;;;;29.64;32.56;102109.00;4973193;28;20023;-86
2022/06/11 09:31:00;;;;;;;9.43;3.38;;;;;;;29.13;32.78;102105.50;4962633;28;20026;-84
2022/06/11 09:33:37;;;;;;;12.50;2.70;;;;;;;28.53;32.79;102102.94;4968259;28;20117;-85
2022/06/11 09:36:06;;;;;;;9.98;3.20;;;;;;;28.47;33.16;102104.47;4972598;28;20046;-84
2022/06/11 09:38:40;;;;;;;16.25;3.35;;;;;;;28.26;33.96;102104.00;4971610;28;20109;-84
2022/06/11 09:41:40;;;;;;;14.02;3.72;;;;;;;27.93;35.11;102101.09;4972770;28;20033;-84
2022/06/11 09:44:30;;;;;;;11.65;3.08;;;;;;;28.09;35.26;102113.97;4964178;28;20030;-85
2022/06/11 09:47:20;;;;;;;9.82;3.28;;;;;;;30.85;32.42;102106.06;4971273;28;20039;-84
2022/06/11 09:49:58;;;;;;;8.88;2.83;;;;;;;32.38;27.88;102101.25;4968798;28;20039;-84
2022/06/11 09:52:39;;;;;;;10.05;2.95;;;;;;;31.32;29.47;102109.72;4967921;28;20047;-85
2022/06/11 09:55:43;;;;;;;13.52;3.28;;;;;;;29.09;32.54;102106.03;4970299;28;20039;-86
2022/06/11 09:58:29;;;;;;;11.80;3.25;;;;;;;28.91;33.92;102106.13;4968909;28;20180;-86
2022/06/11 10:00:58;;;;;;;10.60;3.40;;;;;;;28.15;32.66;102101.53;4971569;28;20061;-84
2022/06/11 10:03:38;;;;;;;11.90;3.60;;;;;;;28.72;32.81;102104.56;4968198;28;20579;-85
2022/06/11 10:06:25;;;;;;;11.82;3.00;;;;;;;28.93;34.76;102099.47;4971041;28;20033;-85
2022/06/11 10:08:58;;;;;;;13.23;3.35;;;;;;;28.26;34.00;102093.06;4972219;28;20453;-87
2022/06/11 10:11:45;;;;;;;12.10;3.20;;;;;;;28.86;32.48;102098.41;4962702;28;20085;-86
2022/06/11 10:14:34;;;;;;;14.75;3.55;;;;;;;31.05;31.75;102106.44;4967867;28;20113;-86
2022/06/11 10:16:59;;;;;;;11.32;2.72;;;;;;;32.96;26.93;102104.13;4970406;28;20491;-86
2022/06/11 10:19:46;;;;;;;13.00;3.10;;;;;;;33.95;28.41;102113.28;4968043;28;20023;-87
2022/06/11 10:22:16;;;;;;;10.60;3.15;;;;;;;33.22;26.16;102104.38;4963730;28;20027;-85
2022/06/11 10:25:06;;;;;;;11.80;3.38;;;;;;;34.10;25.42;102106.81;4969644;28;20420;-86
2022/06/11 10:27:36;;;;;;;12.98;3.47;;;;;;;34.88;25.21;102104.66;4970393;28;20054;-87
2022/06/11 10:30:33;;;;;;;10.15;2.80;;;;;;;35.86;25.40;102113.25;4967101;28;20030;-92
2022/06/11 10:33:01;;;;;;;16.95;6.15;;;;;;;36.20;22.29;102114.06;4967533;28;20493;-93
2022/06/11 10:35:38;;;;;;;13.68;3.72;;;;;;;36.31;23.75;102105.09;4975464;28;20031;-93
2022/06/11 10:38:03;;;;;;;9.30;2.83;;;;;;;36.78;23.64;102106.59;4978651;28;20031;-93
2022/06/11 10:40:38;;;;;;;10.50;3.05;;;;;;;36.99;22.02;102102.66;4981154;28;20090;-93
2022/06/11 10:43:22;;;;;;;9.48;2.50;;;;;;;37.30;22.83;102109.28;4979319;28;20046;-92
2022/06/11 10:45:48;;;;;;;7.60;3.08;;;;;;;36.41;21.96;102111.88;4980190;28;20472;-91
2022/06/11 10:48:20;;;;;;;11.65;3.35;;;;;;;36.12;22.23;102110.50;4973714;28;20014;-92
2022/06/11 10:50:47;;;;;;;8.55;3.10;;;;;;;36.89;22.45;102103.13;4979766;28;20026;-90
2022/06/11 10:53:15;;;;;;;8.30;2.55;;;;;;;37.34;21.53;102100.28;4971292;28;20535;-94
2022/06/11 10:55:54;;;;;;;10.02;3.08;;;;;;;37.37;20.76;102098.97;4978542;28;20122;-91
2022/06/11 10:58:40;;;;;;;10.65;3.10;;;;;;;37.09;22.66;102091.94;4977878;28;20034;-91
2022/06/11 11:01:11;;;;;;;10.15;3.15;;;;;;;36.73;21.56;102098.09;4979332;28;20670;-92
2022/06/11 11:03:55;;;;;;;10.40;3.42;;;;;;;36.59;23.18;102094.56;4974361;28;20015;-92
2022/06/11 11:06:29;;;;;;;10.98;3.50;;;;;;;36.73;22.82;102095.31;4972377;28;20030;-91
2022/06/11 11:08:58;;;;;;;11.43;3.47;;;;;;;37.49;21.78;102102.75;4962309;28;20054;-92
2022/06/11 11:11:25;;;;;;;10.43;3.28;;;;;;;37.71;21.33;102100.44;4985286;28;20106;-96
2022/06/11 11:13:59;;;;;;;11.18;2.92;;;;;;;37.96;21.51;102088.41;4985016;28;20033;-93
2022/06/11 11:16:29;;;;;;;13.15;3.58;;;;;;;38.84;20.25;102099.16;4980010;28;20042;-94
2022/06/11 11:19:09;;;;;;;22.73;4.45;;;;;;;38.40;20.48;102090.09;4977958;28;20485;-95
2022/06/11 11:21:46;;;;;;;9.15;3.03;;;;;;;38.09;20.85;102091.09;4986696;28;20026;-95
2022/06/11 11:24:16;;;;;;;8.93;2.78;;;;;;;38.57;19.67;102088.34;4984156;28;20022;-96
2022/06/11 11:26:47;;;;;;;8.73;2.75;;;;;;;38.90;19.63;102086.22;4979061;28;20054;-94
2022/06/11 11:29:19;;;;;;;7.43;2.63;;;;;;;39.51;19.91;102079.47;4978101;28;20668;-88
2022/06/11 11:31:48;;;;;;;9.55;2.78;;;;;;;39.91;19.73;102087.09;4972495;28;20033;-96
2022/06/11 11:34:16;;;;;;;10.60;2.88;;;;;;;40.05;18.45;102089.41;4982805;28;20058;-92
2022/06/11 11:36:43;;;;;;;8.43;2.72;;;;;;;39.87;18.37;102089.53;4982055;28;20026;-90
2022/06/11 11:39:14;;;;;;;7.30;2.75;;;;;;;39.89;19.40;102090.16;4986893;28;20042;-90
2022/06/11 11:42:07;;;;;;;10.43;2.97;;;;;;;40.42;19.81;102083.50;4982593;28;20041;-93
2022/06/11 11:44:36;;;;;;;6.40;1.90;;;;;;;39.53;17.72;102092.03;4977714;28;20338;-89
2022/06/11 11:47:08;;;;;;;6.30;1.92;;;;;;;39.70;18.08;102089.41;4975177;28;20070;-93